sensor_id;sensor_type;location;lat;lon;timestamp;pressure;altitude;pressure_sealevel;temperature;humidity
73338;BME280;61575;49.908;35.556;2023-04-25T00:01:57;98872.94;;;10.30;73.73
73338;BME280;61575;49.908;35.556;2023-04-25T00:04:59;98882.38;;;10.26;73.83
73338;BME280;61575;49.908;35.556;2023-04-25T00:08:01;98870.34;;;10.22;74.25
73338;BME280;61575;49.908;35.556;2023-04-25T00:11:03;98878.75;;;10.19;74.82
73338;BME280;61575;49.908;35.556;2023-04-25T00:14:05;98875.78;;;10.14;74.80
73338;BME280;61575;49.908;35.556;2023-04-25T00:17:08;98868.47;;;10.08;74.70
73338;BME280;61575;49.908;35.556;2023-04-25T00:20:10;98867.63;;;10.07;74.14
73338;BME280;61575;49.908;35.556;2023-04-25T00:23:14;98868.38;;;10.01;74.79
73338;BME280;61575;49.908;35.556;2023-04-25T00:26:19;98860.03;;;9.96;75.03
73338;BME280;61575;49.908;35.556;2023-04-25T00:29:22;98856.59;;;9.87;75.55
73338;BME280;61575;49.908;35.556;2023-04-25T00:32:24;98849.81;;;9.77;75.72
73338;BME280;61575;49.908;35.556;2023-04-25T00:35:26;98854.53;;;9.75;75.39
73338;BME280;61575;49.908;35.556;2023-04-25T00:38:28;98852.56;;;9.69;75.88
73338;BME280;61575;49.908;35.556;2023-04-25T00:41:32;98848.28;;;9.59;76.12
73338;BME280;61575;49.908;35.556;2023-04-25T00:44:35;98844.28;;;9.55;76.07
73338;BME280;61575;49.908;35.556;2023-04-25T00:47:37;98851.38;;;9.48;76.56
73338;BME280;61575;49.908;35.556;2023-04-25T00:50:39;98844.72;;;9.44;75.96
73338;BME280;61575;49.908;35.556;2023-04-25T00:53:42;98845.91;;;9.42;76.10
73338;BME280;61575;49.908;35.556;2023-04-25T00:56:44;98850.97;;;9.37;76.38
73338;BME280;61575;49.908;35.556;2023-04-25T00:59:47;98841.44;;;9.34;76.33
73338;BME280;61575;49.908;35.556;2023-04-25T01:02:49;98841.72;;;9.24;77.07
73338;BME280;61575;49.908;35.556;2023-04-25T01:05:52;98837.53;;;9.22;77.23
73338;BME280;61575;49.908;35.556;2023-04-25T01:08:54;98833.38;;;9.19;76.78
73338;BME280;61575;49.908;35.556;2023-04-25T01:11:56;98833.56;;;9.18;76.65
73338;BME280;61575;49.908;35.556;2023-04-25T01:15:00;98838.72;;;9.19;76.07
73338;BME280;61575;49.908;35.556;2023-04-25T01:18:04;98836.06;;;9.19;76.50
73338;BME280;61575;49.908;35.556;2023-04-25T01:21:11;98833.56;;;9.18;77.33
73338;BME280;61575;49.908;35.556;2023-04-25T01:24:14;98826.53;;;9.17;77.50
73338;BME280;61575;49.908;35.556;2023-04-25T01:27:17;98838.06;;;9.17;77.45
73338;BME280;61575;49.908;35.556;2023-04-25T01:30:20;98829.56;;;9.14;78.61
73338;BME280;61575;49.908;35.556;2023-04-25T01:33:22;98821.88;;;9.11;78.78
73338;BME280;61575;49.908;35.556;2023-04-25T01:36:24;98822.88;;;9.10;78.80
73338;BME280;61575;49.908;35.556;2023-04-25T01:39:26;98825.06;;;9.06;78.80
73338;BME280;61575;49.908;35.556;2023-04-25T01:42:29;98818.22;;;9.04;78.84
73338;BME280;61575;49.908;35.556;2023-04-25T01:45:31;98814.22;;;9.00;79.03
73338;BME280;61575;49.908;35.556;2023-04-25T01:48:33;98820.94;;;8.95;80.03
73338;BME280;61575;49.908;35.556;2023-04-25T01:51:36;98816.94;;;8.91;80.01
73338;BME280;61575;49.908;35.556;2023-04-25T01:54:38;98823.50;;;8.89;80.05
73338;BME280;61575;49.908;35.556;2023-04-25T01:57:46;98817.31;;;8.88;79.34
73338;BME280;61575;49.908;35.556;2023-04-25T02:00:49;98813.97;;;8.86;78.91
73338;BME280;61575;49.908;35.556;2023-04-25T02:03:51;98805.28;;;8.84;79.32
73338;BME280;61575;49.908;35.556;2023-04-25T02:07:08;98803.78;;;8.82;79.36
73338;BME280;61575;49.908;35.556;2023-04-25T02:10:21;98814.66;;;8.80;79.96
73338;BME280;61575;49.908;35.556;2023-04-25T02:13:41;98805.31;;;8.76;80.41
73338;BME280;61575;49.908;35.556;2023-04-25T02:17:09;98805.50;;;8.75;80.18
73338;BME280;61575;49.908;35.556;2023-04-25T02:20:13;98809.19;;;8.74;79.92
73338;BME280;61575;49.908;35.556;2023-04-25T02:23:15;98801.31;;;8.72;79.66
73338;BME280;61575;49.908;35.556;2023-04-25T02:26:17;98801.16;;;8.74;80.05
73338;BME280;61575;49.908;35.556;2023-04-25T02:29:19;98802.16;;;8.73;80.58
73338;BME280;61575;49.908;35.556;2023-04-25T02:32:21;98803.16;;;8.72;80.90
73338;BME280;61575;49.908;35.556;2023-04-25T02:35:22;98809.19;;;8.74;81.81
73338;BME280;61575;49.908;35.556;2023-04-25T02:38:27;98814.00;;;8.78;81.83
73338;BME280;61575;49.908;35.556;2023-04-25T02:41:30;98818.19;;;8.81;82.34
73338;BME280;61575;49.908;35.556;2023-04-25T02:44:32;98810.44;;;8.86;81.70
73338;BME280;61575;49.908;35.556;2023-04-25T02:47:34;98820.47;;;8.92;81.38
73338;BME280;61575;49.908;35.556;2023-04-25T02:50:36;98818.25;;;8.95;80.77
73338;BME280;61575;49.908;35.556;2023-04-25T02:53:38;98820.41;;;9.00;81.79
73338;BME280;61575;49.908;35.556;2023-04-25T02:56:40;98827.25;;;9.03;82.09
73338;BME280;61575;49.908;35.556;2023-04-25T02:59:48;98816.38;;;9.04;81.96
73338;BME280;61575;49.908;35.556;2023-04-25T03:02:50;98815.00;;;9.08;81.81
73338;BME280;61575;49.908;35.556;2023-04-25T03:05:52;98826.06;;;9.13;81.67
73338;BME280;61575;49.908;35.556;2023-04-25T03:08:59;98823.53;;;9.12;81.92
73338;BME280;61575;49.908;35.556;2023-04-25T03:12:01;98817.84;;;9.15;82.22
73338;BME280;61575;49.908;35.556;2023-04-25T03:15:03;98830.88;;;9.18;81.57
73338;BME280;61575;49.908;35.556;2023-04-25T03:18:05;98828.00;;;9.19;81.78
73338;BME280;61575;49.908;35.556;2023-04-25T03:21:08;98817.13;;;9.21;81.97
73338;BME280;61575;49.908;35.556;2023-04-25T03:24:10;98826.00;;;9.21;82.06
73338;BME280;61575;49.908;35.556;2023-04-25T03:27:13;98813.91;;;9.25;81.91
73338;BME280;61575;49.908;35.556;2023-04-25T03:30:15;98825.28;;;9.27;81.85
73338;BME280;61575;49.908;35.556;2023-04-25T03:33:18;98821.41;;;9.30;82.64
73338;BME280;61575;49.908;35.556;2023-04-25T03:36:20;98825.38;;;9.34;82.66
73338;BME280;61575;49.908;35.556;2023-04-25T03:39:22;98818.34;;;9.33;83.56
73338;BME280;61575;49.908;35.556;2023-04-25T03:42:26;98818.94;;;9.43;82.72
73338;BME280;61575;49.908;35.556;2023-04-25T03:45:28;98816.91;;;9.45;82.96
73338;BME280;61575;49.908;35.556;2023-04-25T03:48:30;98814.53;;;9.50;82.75
73338;BME280;61575;49.908;35.556;2023-04-25T03:51:33;98821.00;;;9.56;83.53
73338;BME280;61575;49.908;35.556;2023-04-25T03:54:36;98815.09;;;9.60;83.29
73338;BME280;61575;49.908;35.556;2023-04-25T03:57:42;98808.38;;;9.65;83.73
73338;BME280;61575;49.908;35.556;2023-04-25T04:00:44;98802.09;;;9.72;83.47
73338;BME280;61575;49.908;35.556;2023-04-25T04:03:46;98804.22;;;9.77;83.58
73338;BME280;61575;49.908;35.556;2023-04-25T04:06:48;98796.09;;;9.85;83.74
73338;BME280;61575;49.908;35.556;2023-04-25T04:09:55;98799.91;;;9.90;83.35
73338;BME280;61575;49.908;35.556;2023-04-25T04:13:03;98797.13;;;9.99;83.21
73338;BME280;61575;49.908;35.556;2023-04-25T04:16:05;98798.72;;;10.08;83.35
73338;BME280;61575;49.908;35.556;2023-04-25T04:19:07;98792.81;;;10.12;83.44
73338;BME280;61575;49.908;35.556;2023-04-25T04:22:10;98789.38;;;10.18;83.28
73338;BME280;61575;49.908;35.556;2023-04-25T04:25:14;98781.88;;;10.29;83.22
73338;BME280;61575;49.908;35.556;2023-04-25T04:28:37;98784.47;;;10.37;83.14
73338;BME280;61575;49.908;35.556;2023-04-25T04:31:50;98784.81;;;10.48;83.09
73338;BME280;61575;49.908;35.556;2023-04-25T04:34:53;98781.66;;;10.59;82.35
73338;BME280;61575;49.908;35.556;2023-04-25T04:37:57;98771.81;;;10.67;82.45
73338;BME280;61575;49.908;35.556;2023-04-25T04:41:03;98760.44;;;10.79;82.31
73338;BME280;61575;49.908;35.556;2023-04-25T04:44:29;98754.19;;;10.94;81.93
73338;BME280;61575;49.908;35.556;2023-04-25T04:47:57;98755.78;;;11.09;81.34
73338;BME280;61575;49.908;35.556;2023-04-25T04:51:09;98748.06;;;11.21;81.56
73338;BME280;61575;49.908;35.556;2023-04-25T04:54:32;98751.50;;;11.36;80.94
73338;BME280;61575;49.908;35.556;2023-04-25T04:58:09;98745.97;;;11.44;81.43
73338;BME280;61575;49.908;35.556;2023-04-25T05:01:30;98753.56;;;11.62;80.96
73338;BME280;61575;49.908;35.556;2023-04-25T05:04:52;98752.25;;;11.79;80.74
73338;BME280;61575;49.908;35.556;2023-04-25T05:08:10;98749.09;;;12.04;80.29
73338;BME280;61575;49.908;35.556;2023-04-25T05:11:25;98745.06;;;12.21;80.81
73338;BME280;61575;49.908;35.556;2023-04-25T05:14:44;98752.22;;;12.42;79.65
73338;BME280;61575;49.908;35.556;2023-04-25T05:18:04;98752.31;;;12.68;79.17
73338;BME280;61575;49.908;35.556;2023-04-25T05:21:16;98748.63;;;12.82;78.92
73338;BME280;61575;49.908;35.556;2023-04-25T05:24:32;98742.69;;;13.07;77.88
73338;BME280;61575;49.908;35.556;2023-04-25T05:28:03;98751.88;;;13.32;77.27
73338;BME280;61575;49.908;35.556;2023-04-25T05:31:21;98744.63;;;13.46;76.03
73338;BME280;61575;49.908;35.556;2023-04-25T05:34:44;98739.84;;;13.61;75.55
73338;BME280;61575;49.908;35.556;2023-04-25T05:37:56;98740.25;;;13.78;74.49
73338;BME280;61575;49.908;35.556;2023-04-25T05:41:11;98728.81;;;13.96;73.71
73338;BME280;61575;49.908;35.556;2023-04-25T05:44:33;98734.38;;;14.14;73.22
73338;BME280;61575;49.908;35.556;2023-04-25T05:47:49;98732.69;;;14.20;73.39
73338;BME280;61575;49.908;35.556;2023-04-25T05:51:14;98734.34;;;14.21;72.96
73338;BME280;61575;49.908;35.556;2023-04-25T05:54:22;98719.44;;;14.05;72.86
73338;BME280;61575;49.908;35.556;2023-04-25T05:57:27;98724.84;;;13.98;73.08
73338;BME280;61575;49.908;35.556;2023-04-25T06:00:30;98730.88;;;14.00;73.11
73338;BME280;61575;49.908;35.556;2023-04-25T06:03:32;98723.81;;;13.99;73.56
73338;BME280;61575;49.908;35.556;2023-04-25T06:06:34;98721.31;;;13.98;73.59
73338;BME280;61575;49.908;35.556;2023-04-25T06:09:36;98717.16;;;13.95;73.90
73338;BME280;61575;49.908;35.556;2023-04-25T06:12:40;98711.56;;;13.97;74.30
73338;BME280;61575;49.908;35.556;2023-04-25T06:15:42;98716.53;;;14.00;73.94
73338;BME280;61575;49.908;35.556;2023-04-25T06:18:45;98718.41;;;13.93;73.66
73338;BME280;61575;49.908;35.556;2023-04-25T06:21:49;98715.09;;;13.91;73.71
73338;BME280;61575;49.908;35.556;2023-04-25T06:24:51;98718.84;;;13.90;73.74
73338;BME280;61575;49.908;35.556;2023-04-25T06:27:53;98715.72;;;13.93;73.84
73338;BME280;61575;49.908;35.556;2023-04-25T06:30:55;98704.72;;;13.88;73.69
73338;BME280;61575;49.908;35.556;2023-04-25T06:33:58;98716.78;;;13.85;73.54
73338;BME280;61575;49.908;35.556;2023-04-25T06:37:02;98705.34;;;13.90;73.68
73338;BME280;61575;49.908;35.556;2023-04-25T06:40:05;98711.56;;;13.90;73.36
73338;BME280;61575;49.908;35.556;2023-04-25T06:43:10;98719.28;;;13.80;73.39
73338;BME280;61575;49.908;35.556;2023-04-25T06:46:38;98712.84;;;13.68;74.06
73338;BME280;61575;49.908;35.556;2023-04-25T06:49:41;98716.78;;;13.72;74.28
73338;BME280;61575;49.908;35.556;2023-04-25T06:52:44;98715.97;;;13.78;74.22
73338;BME280;61575;49.908;35.556;2023-04-25T06:55:46;98719.06;;;13.82;74.17
73338;BME280;61575;49.908;35.556;2023-04-25T06:58:53;98715.97;;;13.78;74.36
73338;BME280;61575;49.908;35.556;2023-04-25T07:02:03;98720.50;;;13.91;74.44
73338;BME280;61575;49.908;35.556;2023-04-25T07:05:05;98716.75;;;13.98;74.78
73338;BME280;61575;49.908;35.556;2023-04-25T07:08:08;98725.03;;;14.03;74.79
73338;BME280;61575;49.908;35.556;2023-04-25T07:11:09;98715.88;;;14.11;74.54
73338;BME280;61575;49.908;35.556;2023-04-25T07:14:11;98721.06;;;14.12;73.55
73338;BME280;61575;49.908;35.556;2023-04-25T07:17:14;98717.94;;;14.16;73.59
73338;BME280;61575;49.908;35.556;2023-04-25T07:20:17;98725.00;;;14.23;73.90
73338;BME280;61575;49.908;35.556;2023-04-25T07:23:19;98724.13;;;14.36;73.44
73338;BME280;61575;49.908;35.556;2023-04-25T07:26:22;98722.44;;;14.35;73.06
73338;BME280;61575;49.908;35.556;2023-04-25T07:29:43;98720.78;;;14.47;72.78
73338;BME280;61575;49.908;35.556;2023-04-25T07:32:44;98719.09;;;14.46;72.18
73338;BME280;61575;49.908;35.556;2023-04-25T07:35:47;98727.97;;;14.60;72.17
73338;BME280;61575;49.908;35.556;2023-04-25T07:38:49;98714.13;;;14.81;72.29
73338;BME280;61575;49.908;35.556;2023-04-25T07:41:51;98712.78;;;14.97;71.16
73338;BME280;61575;49.908;35.556;2023-04-25T07:45:00;98719.19;;;15.02;71.29
73338;BME280;61575;49.908;35.556;2023-04-25T07:48:03;98711.13;;;15.27;70.60
73338;BME280;61575;49.908;35.556;2023-04-25T07:51:09;98720.19;;;15.39;70.22
73338;BME280;61575;49.908;35.556;2023-04-25T07:54:13;98705.69;;;15.59;68.98
73338;BME280;61575;49.908;35.556;2023-04-25T07:57:20;98709.47;;;15.76;68.15
73338;BME280;61575;49.908;35.556;2023-04-25T08:00:24;98710.91;;;15.79;66.31
73338;BME280;61575;49.908;35.556;2023-04-25T08:03:39;98712.22;;;15.94;66.66
73338;BME280;61575;49.908;35.556;2023-04-25T08:06:49;98709.06;;;15.97;66.59
73338;BME280;61575;49.908;35.556;2023-04-25T08:09:57;98704.47;;;16.16;66.57
73338;BME280;61575;49.908;35.556;2023-04-25T08:13:05;98705.75;;;16.32;65.27
73338;BME280;61575;49.908;35.556;2023-04-25T08:16:09;98706.72;;;16.37;64.19
73338;BME280;61575;49.908;35.556;2023-04-25T08:19:11;98703.72;;;16.46;63.83
73338;BME280;61575;49.908;35.556;2023-04-25T08:22:13;98706.44;;;16.64;63.88
73338;BME280;61575;49.908;35.556;2023-04-25T08:25:25;98697.00;;;16.96;63.84
73338;BME280;61575;49.908;35.556;2023-04-25T08:28:28;98689.06;;;17.37;62.54
73338;BME280;61575;49.908;35.556;2023-04-25T08:31:33;98686.16;;;17.96;60.41
73338;BME280;61575;49.908;35.556;2023-04-25T08:34:37;98682.13;;;18.11;58.79
73338;BME280;61575;49.908;35.556;2023-04-25T08:37:41;98675.84;;;18.22;58.23
73338;BME280;61575;49.908;35.556;2023-04-25T08:40:50;98677.06;;;18.03;58.09
73338;BME280;61575;49.908;35.556;2023-04-25T08:43:56;98664.31;;;17.91;58.36
73338;BME280;61575;49.908;35.556;2023-04-25T08:46:59;98675.19;;;17.68;58.76
73338;BME280;61575;49.908;35.556;2023-04-25T08:50:05;98663.50;;;17.56;58.71
73338;BME280;61575;49.908;35.556;2023-04-25T08:53:09;98674.09;;;17.34;58.44
73338;BME280;61575;49.908;35.556;2023-04-25T08:56:12;98670.88;;;17.25;58.72
73338;BME280;61575;49.908;35.556;2023-04-25T08:59:15;98662.03;;;17.18;57.78
73338;BME280;61575;49.908;35.556;2023-04-25T09:02:19;98654.72;;;17.42;58.07
73338;BME280;61575;49.908;35.556;2023-04-25T09:05:25;98653.78;;;17.48;54.81
73338;BME280;61575;49.908;35.556;2023-04-25T09:08:27;98651.22;;;17.77;56.00
73338;BME280;61575;49.908;35.556;2023-04-25T09:11:29;98657.22;;;17.90;56.01
73338;BME280;61575;49.908;35.556;2023-04-25T09:14:33;98648.09;;;18.08;55.64
73338;BME280;61575;49.908;35.556;2023-04-25T09:17:58;98645.53;;;17.90;51.96
73338;BME280;61575;49.908;35.556;2023-04-25T09:21:11;98639.16;;;17.84;53.68
73338;BME280;61575;49.908;35.556;2023-04-25T09:27:57;98644.00;;;17.47;52.19
73338;BME280;61575;49.908;35.556;2023-04-25T09:31:05;98641.38;;;17.29;54.11
73338;BME280;61575;49.908;35.556;2023-04-25T09:34:14;98643.13;;;17.12;54.61
73338;BME280;61575;49.908;35.556;2023-04-25T09:40:45;98637.97;;;16.68;55.68
73338;BME280;61575;49.908;35.556;2023-04-25T09:43:57;98635.22;;;16.57;55.53
73338;BME280;61575;49.908;35.556;2023-04-25T09:47:09;98633.25;;;16.46;55.35
73338;BME280;61575;49.908;35.556;2023-04-25T09:50:16;98637.31;;;16.36;55.44
73338;BME280;61575;49.908;35.556;2023-04-25T09:53:22;98632.53;;;16.20;55.50
73338;BME280;61575;49.908;35.556;2023-04-25T09:56:37;98630.75;;;16.14;55.50
73338;BME280;61575;49.908;35.556;2023-04-25T09:59:54;98625.97;;;16.28;56.50
73338;BME280;61575;49.908;35.556;2023-04-25T10:03:01;98630.84;;;16.37;55.72
73338;BME280;61575;49.908;35.556;2023-04-25T10:06:33;98627.22;;;16.44;55.36
73338;BME280;61575;49.908;35.556;2023-04-25T10:09:37;98615.69;;;16.48;54.73
73338;BME280;61575;49.908;35.556;2023-04-25T10:12:41;98617.28;;;16.56;54.47
73338;BME280;61575;49.908;35.556;2023-04-25T10:15:46;98613.31;;;16.70;54.23
73338;BME280;61575;49.908;35.556;2023-04-25T10:18:49;98614.72;;;16.61;54.18
73338;BME280;61575;49.908;35.556;2023-04-25T10:22:06;98611.34;;;16.77;54.05
73338;BME280;61575;49.908;35.556;2023-04-25T10:25:09;98608.88;;;16.87;53.70
73338;BME280;61575;49.908;35.556;2023-04-25T10:28:11;98598.53;;;17.08;53.06
73338;BME280;61575;49.908;35.556;2023-04-25T10:31:15;98602.44;;;17.23;52.58
73338;BME280;61575;49.908;35.556;2023-04-25T10:34:18;98594.31;;;17.47;52.58
73338;BME280;61575;49.908;35.556;2023-04-25T10:37:20;98598.78;;;17.76;52.40
73338;BME280;61575;49.908;35.556;2023-04-25T10:40:22;98599.22;;;17.96;51.05
73338;BME280;61575;49.908;35.556;2023-04-25T10:46:33;98589.44;;;17.95;51.87
73338;BME280;61575;49.908;35.556;2023-04-25T10:49:42;98595.59;;;17.91;51.52
73338;BME280;61575;49.908;35.556;2023-04-25T10:52:44;98590.75;;;17.81;51.70
73338;BME280;61575;49.908;35.556;2023-04-25T10:55:50;98583.69;;;17.69;51.20
73338;BME280;61575;49.908;35.556;2023-04-25T10:59:05;98582.53;;;17.53;51.64
73338;BME280;61575;49.908;35.556;2023-04-25T11:02:11;98579.81;;;17.53;51.77
73338;BME280;61575;49.908;35.556;2023-04-25T11:05:35;98578.84;;;17.47;51.95
73338;BME280;61575;49.908;35.556;2023-04-25T11:08:55;98573.91;;;17.44;52.37
73338;BME280;61575;49.908;35.556;2023-04-25T11:11:58;98577.09;;;17.53;52.12
73338;BME280;61575;49.908;35.556;2023-04-25T11:15:06;98573.66;;;17.46;52.14
73338;BME280;61575;49.908;35.556;2023-04-25T11:18:09;98571.44;;;17.54;52.11
73338;BME280;61575;49.908;35.556;2023-04-25T11:21:11;98561.66;;;17.53;51.80
73338;BME280;61575;49.908;35.556;2023-04-25T11:24:15;98559.50;;;17.44;52.60
73338;BME280;61575;49.908;35.556;2023-04-25T11:27:17;98561.97;;;17.45;52.70
73338;BME280;61575;49.908;35.556;2023-04-25T11:30:20;98563.50;;;17.41;52.76
73338;BME280;61575;49.908;35.556;2023-04-25T11:33:24;98560.44;;;17.38;52.50
73338;BME280;61575;49.908;35.556;2023-04-25T11:36:26;98548.06;;;17.42;53.32
73338;BME280;61575;49.908;35.556;2023-04-25T11:39:29;98552.41;;;17.43;52.26
73338;BME280;61575;49.908;35.556;2023-04-25T11:42:32;98550.28;;;17.45;52.20
73338;BME280;61575;49.908;35.556;2023-04-25T11:45:37;98552.19;;;17.56;51.60
73338;BME280;61575;49.908;35.556;2023-04-25T11:48:42;98538.94;;;17.71;51.96
73338;BME280;61575;49.908;35.556;2023-04-25T11:51:46;98542.00;;;17.75;51.50
73338;BME280;61575;49.908;35.556;2023-04-25T11:54:48;98540.47;;;17.79;51.90
73338;BME280;61575;49.908;35.556;2023-04-25T11:57:50;98528.97;;;17.88;51.05
73338;BME280;61575;49.908;35.556;2023-04-25T12:00:52;98524.56;;;17.99;50.47
73338;BME280;61575;49.908;35.556;2023-04-25T12:03:54;98530.09;;;18.04;50.91
73338;BME280;61575;49.908;35.556;2023-04-25T12:06:56;98528.41;;;18.15;50.38
73338;BME280;61575;49.908;35.556;2023-04-25T12:09:58;98525.50;;;18.33;50.52
73338;BME280;61575;49.908;35.556;2023-04-25T12:13:18;98514.34;;;18.46;48.57
73338;BME280;61575;49.908;35.556;2023-04-25T12:16:20;98512.63;;;18.57;48.80
73338;BME280;61575;49.908;35.556;2023-04-25T12:22:59;98512.94;;;18.60;47.70
73338;BME280;61575;49.908;35.556;2023-04-25T12:26:01;98509.91;;;18.90;48.75
73338;BME280;61575;49.908;35.556;2023-04-25T12:29:14;98502.03;;;19.11;49.18
73338;BME280;61575;49.908;35.556;2023-04-25T12:32:16;98507.97;;;19.24;48.19
73338;BME280;61575;49.908;35.556;2023-04-25T12:35:19;98499.91;;;19.30;47.42
73338;BME280;61575;49.908;35.556;2023-04-25T12:38:25;98497.81;;;19.37;47.49
73338;BME280;61575;49.908;35.556;2023-04-25T12:41:27;98493.47;;;19.57;48.25
73338;BME280;61575;49.908;35.556;2023-04-25T12:44:29;98494.84;;;19.60;47.31
73338;BME280;61575;49.908;35.556;2023-04-25T12:47:32;98489.84;;;19.52;46.37
73338;BME280;61575;49.908;35.556;2023-04-25T12:50:36;98489.22;;;19.45;46.73
73338;BME280;61575;49.908;35.556;2023-04-25T12:53:38;98477.69;;;19.38;46.62
73338;BME280;61575;49.908;35.556;2023-04-25T12:56:42;98476.34;;;19.40;45.72
73338;BME280;61575;49.908;35.556;2023-04-25T12:59:44;98476.88;;;19.37;45.40
73338;BME280;61575;49.908;35.556;2023-04-25T13:02:46;98475.28;;;19.24;45.90
73338;BME280;61575;49.908;35.556;2023-04-25T13:05:48;98480.66;;;19.19;45.72
73338;BME280;61575;49.908;35.556;2023-04-25T13:08:51;98475.47;;;19.35;45.61
73338;BME280;61575;49.908;35.556;2023-04-25T13:11:54;98473.06;;;19.21;42.67
73338;BME280;61575;49.908;35.556;2023-04-25T13:14:59;98479.47;;;19.49;45.39
73338;BME280;61575;49.908;35.556;2023-04-25T13:18:02;98474.41;;;19.57;45.83
73338;BME280;61575;49.908;35.556;2023-04-25T13:21:04;98467.94;;;19.64;46.25
73338;BME280;61575;49.908;35.556;2023-04-25T13:24:07;98472.56;;;19.63;45.68
73338;BME280;61575;49.908;35.556;2023-04-25T13:27:08;98476.94;;;19.42;45.57
73338;BME280;61575;49.908;35.556;2023-04-25T13:30:11;98475.41;;;19.30;45.55
73338;BME280;61575;49.908;35.556;2023-04-25T13:33:13;98465.72;;;19.22;45.80
73338;BME280;61575;49.908;35.556;2023-04-25T13:36:21;98464.91;;;19.21;45.73
73338;BME280;61575;49.908;35.556;2023-04-25T13:39:24;98462.13;;;19.16;43.63
73338;BME280;61575;49.908;35.556;2023-04-25T13:42:26;98471.09;;;19.17;44.87
73338;BME280;61575;49.908;35.556;2023-04-25T13:45:28;98466.47;;;19.34;45.36
73338;BME280;61575;49.908;35.556;2023-04-25T13:48:33;98462.44;;;19.20;44.88
73338;BME280;61575;49.908;35.556;2023-04-25T13:51:35;98451.38;;;19.26;43.78
73338;BME280;61575;49.908;35.556;2023-04-25T13:54:37;98456.75;;;19.21;44.34
73338;BME280;61575;49.908;35.556;2023-04-25T13:57:39;98461.63;;;19.19;44.50
73338;BME280;61575;49.908;35.556;2023-04-25T14:00:42;98448.84;;;19.20;44.82
73338;BME280;61575;49.908;35.556;2023-04-25T14:03:45;98457.19;;;19.13;45.25
73338;BME280;61575;49.908;35.556;2023-04-25T14:06:47;98455.31;;;18.97;45.00
73338;BME280;61575;49.908;35.556;2023-04-25T14:09:49;98455.00;;;18.93;44.69
73338;BME280;61575;49.908;35.556;2023-04-25T14:12:51;98445.28;;;18.81;45.65
73338;BME280;61575;49.908;35.556;2023-04-25T14:15:53;98440.84;;;18.75;46.12
73338;BME280;61575;49.908;35.556;2023-04-25T14:18:55;98435.31;;;18.70;45.68
73338;BME280;61575;49.908;35.556;2023-04-25T14:21:57;98432.44;;;18.59;45.76
73338;BME280;61575;49.908;35.556;2023-04-25T14:24:59;98430.31;;;18.61;45.56
73338;BME280;61575;49.908;35.556;2023-04-25T14:28:01;98430.88;;;18.63;45.89
73338;BME280;61575;49.908;35.556;2023-04-25T14:31:03;98435.09;;;18.54;46.02
73338;BME280;61575;49.908;35.556;2023-04-25T14:34:06;98433.09;;;18.50;46.59
73338;BME280;61575;49.908;35.556;2023-04-25T14:37:08;98437.22;;;18.52;46.83
73338;BME280;61575;49.908;35.556;2023-04-25T14:40:11;98441.50;;;18.48;46.97
73338;BME280;61575;49.908;35.556;2023-04-25T14:43:15;98438.59;;;18.38;46.67
73338;BME280;61575;49.908;35.556;2023-04-25T14:46:17;98447.88;;;18.25;47.47
73338;BME280;61575;49.908;35.556;2023-04-25T14:49:19;98450.19;;;18.17;48.30
73338;BME280;61575;49.908;35.556;2023-04-25T14:52:21;98478.00;;;18.07;48.17
73338;BME280;61575;49.908;35.556;2023-04-25T14:55:23;98478.81;;;17.27;53.71
73338;BME280;61575;49.908;35.556;2023-04-25T14:58:25;98466.69;;;16.83;55.65
73338;BME280;61575;49.908;35.556;2023-04-25T15:01:29;98483.28;;;16.10;60.11
73338;BME280;61575;49.908;35.556;2023-04-25T15:04:32;98494.13;;;15.62;64.47
73338;BME280;61575;49.908;35.556;2023-04-25T15:07:34;98498.41;;;15.33;64.48
73338;BME280;61575;49.908;35.556;2023-04-25T15:10:36;98493.41;;;14.93;66.00
73338;BME280;61575;49.908;35.556;2023-04-25T15:13:38;98478.44;;;14.72;66.57
73338;BME280;61575;49.908;35.556;2023-04-25T15:16:40;98489.50;;;14.39;68.67
73338;BME280;61575;49.908;35.556;2023-04-25T15:19:42;98490.09;;;14.17;69.45
73338;BME280;61575;49.908;35.556;2023-04-25T15:22:44;98491.88;;;13.98;70.90
73338;BME280;61575;49.908;35.556;2023-04-25T15:25:52;98491.94;;;13.85;71.42
73338;BME280;61575;49.908;35.556;2023-04-25T15:28:54;98491.75;;;13.79;71.73
73338;BME280;61575;49.908;35.556;2023-04-25T15:31:57;98493.91;;;13.64;72.94
73338;BME280;61575;49.908;35.556;2023-04-25T15:35:01;98500.22;;;13.45;74.75
73338;BME280;61575;49.908;35.556;2023-04-25T15:38:05;98489.00;;;13.48;74.68
73338;BME280;61575;49.908;35.556;2023-04-25T15:41:07;98491.97;;;13.33;76.26
73338;BME280;61575;49.908;35.556;2023-04-25T15:44:09;98476.63;;;13.34;75.11
73338;BME280;61575;49.908;35.556;2023-04-25T15:47:11;98462.91;;;13.29;74.50
73338;BME280;61575;49.908;35.556;2023-04-25T15:50:13;98446.78;;;13.15;75.31
73338;BME280;61575;49.908;35.556;2023-04-25T15:53:18;98438.50;;;13.10;74.91
73338;BME280;61575;49.908;35.556;2023-04-25T15:56:20;98433.94;;;13.11;75.58
73338;BME280;61575;49.908;35.556;2023-04-25T15:59:22;98431.44;;;13.16;74.33
73338;BME280;61575;49.908;35.556;2023-04-25T16:02:23;98428.09;;;13.21;74.80
73338;BME280;61575;49.908;35.556;2023-04-25T16:05:26;98426.00;;;13.29;73.94
73338;BME280;61575;49.908;35.556;2023-04-25T16:08:28;98421.63;;;13.35;73.58
73338;BME280;61575;49.908;35.556;2023-04-25T16:11:30;98420.59;;;13.36;73.58
73338;BME280;61575;49.908;35.556;2023-04-25T16:14:32;98410.63;;;13.36;73.42
73338;BME280;61575;49.908;35.556;2023-04-25T16:17:34;98410.03;;;13.34;73.98
73338;BME280;61575;49.908;35.556;2023-04-25T16:20:36;98415.63;;;13.33;74.54
73338;BME280;61575;49.908;35.556;2023-04-25T16:23:38;98410.03;;;13.34;75.02
73338;BME280;61575;49.908;35.556;2023-04-25T16:26:40;98407.72;;;13.31;74.67